createdAt,value
2017-08-04T00:01:33.347Z,63.20
2017-08-04T00:04:01.880Z,63.30
2017-08-04T00:06:30.975Z,63.60
2017-08-04T00:08:59.298Z,63.60
2017-08-04T00:11:27.560Z,63.70
2017-08-04T00:13:55.806Z,63.80
2017-08-04T00:16:24.118Z,64.00
2017-08-04T00:18:52.823Z,64.10
2017-08-04T00:21:21.429Z,64.30
2017-08-04T00:23:50.590Z,64.80
2017-08-04T00:26:19.025Z,64.50
2017-08-04T00:28:47.310Z,64.70
2017-08-04T00:31:15.561Z,64.70
2017-08-04T00:33:45.735Z,66.20
2017-08-04T00:36:13.981Z,65.00
2017-08-04T00:38:42.990Z,65.40
2017-08-04T00:41:11.247Z,65.40
2017-08-04T00:43:39.565Z,65.70
2017-08-04T00:46:07.904Z,65.80
2017-08-04T00:48:36.992Z,66.00
2017-08-04T00:51:06.008Z,66.80
2017-08-04T00:53:34.268Z,66.00
2017-08-04T00:56:03.101Z,65.90
2017-08-04T00:58:31.587Z,65.90
2017-08-04T01:00:59.799Z,66.20
2017-08-04T01:03:28.076Z,67.10
2017-08-04T01:05:56.454Z,66.30
2017-08-04T01:08:24.722Z,66.40
2017-08-04T01:10:53.790Z,66.40
2017-08-04T01:13:22.082Z,66.30
2017-08-04T01:15:50.313Z,66.50
2017-08-04T01:18:18.617Z,66.70
2017-08-04T01:20:47.989Z,66.60
2017-08-04T01:23:16.265Z,66.50
2017-08-04T01:25:45.886Z,66.60
2017-08-04T01:28:14.284Z,66.60
2017-08-04T01:30:43.372Z,66.90
2017-08-04T01:33:12.524Z,66.50
2017-08-04T01:35:40.822Z,66.70
2017-08-04T01:38:09.060Z,66.80
2017-08-04T01:40:38.221Z,66.90
2017-08-04T01:43:06.903Z,66.80
2017-08-04T01:45:35.344Z,67.20
2017-08-04T01:48:03.604Z,67.20
2017-08-04T01:50:32.010Z,67.00
2017-08-04T01:53:01.464Z,67.20
2017-08-04T01:55:30.631Z,67.20
2017-08-04T01:57:59.073Z,67.20
2017-08-04T02:00:27.492Z,66.90
2017-08-04T02:02:55.751Z,67.00
2017-08-04T02:05:24.248Z,66.90
2017-08-04T02:07:52.491Z,67.20
2017-08-04T02:10:20.743Z,67.30
2017-08-04T02:12:49.131Z,67.60
2017-08-04T02:15:17.391Z,67.90
2017-08-04T02:17:45.784Z,68.40
2017-08-04T02:20:14.037Z,68.40
2017-08-04T02:22:42.733Z,68.70
2017-08-04T02:25:11.220Z,69.00
2017-08-04T02:27:39.520Z,69.20
2017-08-04T02:30:07.958Z,69.50
2017-08-04T02:32:37.137Z,70.00
2017-08-04T02:35:05.637Z,70.00
2017-08-04T02:37:33.889Z,70.40
2017-08-04T02:40:02.950Z,70.90
2017-08-04T02:42:31.212Z,70.90
2017-08-04T02:44:59.495Z,70.90
2017-08-04T02:47:27.930Z,71.10
2017-08-04T02:49:58.335Z,71.20
2017-08-04T02:52:27.388Z,71.10
2017-08-04T02:54:55.650Z,71.10
2017-08-04T02:57:23.967Z,71.10
2017-08-04T02:59:52.219Z,71.30
2017-08-04T03:02:20.692Z,71.00
2017-08-04T03:04:48.943Z,70.80
2017-08-04T03:07:17.239Z,70.60
2017-08-04T03:09:46.646Z,70.50
2017-08-04T03:12:14.977Z,70.40
2017-08-04T03:14:43.987Z,70.40
2017-08-04T03:17:12.640Z,70.40
2017-08-04T03:19:40.925Z,70.70
2017-08-04T03:22:09.302Z,70.80
2017-08-04T03:24:38.702Z,70.40
2017-08-04T03:27:06.997Z,70.40
2017-08-04T03:29:35.544Z,70.50
2017-08-04T03:32:04.534Z,70.50
2017-08-04T03:34:33.527Z,70.70
2017-08-04T03:37:01.754Z,70.90
2017-08-04T03:39:35.690Z,71.00
2017-08-04T03:42:04.000Z,71.10
2017-08-04T03:44:33.037Z,71.30
2017-08-04T03:47:01.570Z,71.30
2017-08-04T03:49:30.599Z,72.30
2017-08-04T03:51:58.874Z,72.30
2017-08-04T03:54:27.116Z,71.50
2017-08-04T03:56:56.179Z,71.40
2017-08-04T03:59:24.414Z,71.40
2017-08-04T04:01:52.742Z,71.50
2017-08-04T04:04:20.990Z,71.70
2017-08-04T04:06:49.248Z,71.70
2017-08-04T04:09:17.647Z,71.70
2017-08-04T04:11:46.058Z,71.80
2017-08-04T04:14:14.726Z,71.80
2017-08-04T04:16:42.997Z,71.90
2017-08-04T04:19:11.266Z,71.90
2017-08-04T04:21:39.555Z,71.80
2017-08-04T04:24:07.946Z,72.00
2017-08-04T04:26:36.376Z,71.90
2017-08-04T04:29:04.699Z,71.80
2017-08-04T04:31:33.146Z,71.90
2017-08-04T04:34:01.414Z,71.90
2017-08-04T04:36:29.687Z,71.90
2017-08-04T04:38:58.119Z,72.00
2017-08-04T04:41:26.342Z,72.70
2017-08-04T04:43:54.621Z,72.00
2017-08-04T04:46:22.909Z,71.60
2017-08-04T04:48:51.155Z,71.60
2017-08-04T04:51:20.180Z,72.10
2017-08-04T04:53:48.696Z,72.10
2017-08-04T04:56:16.975Z,71.90
2017-08-04T04:58:45.374Z,71.80
2017-08-04T05:01:13.652Z,71.60
2017-08-04T05:03:41.897Z,71.50
2017-08-04T05:06:10.918Z,71.30
2017-08-04T05:08:39.165Z,71.30
2017-08-04T05:11:07.702Z,71.10
2017-08-04T05:13:36.223Z,70.90
2017-08-04T05:16:05.939Z,71.00
2017-08-04T05:18:35.280Z,71.40
2017-08-04T05:21:06.541Z,70.60
2017-08-04T05:23:36.060Z,70.60
2017-08-04T05:26:06.308Z,70.70
2017-08-04T05:28:34.946Z,70.00
2017-08-04T05:31:05.854Z,68.00
2017-08-04T05:33:34.097Z,68.10
2017-08-04T05:36:02.356Z,67.50
2017-08-04T05:38:30.672Z,67.00
2017-08-04T05:40:59.708Z,66.70
2017-08-04T05:43:28.450Z,66.70
2017-08-04T05:45:57.698Z,67.00
2017-08-04T05:48:26.954Z,66.20
2017-08-04T05:50:55.250Z,66.20
2017-08-04T05:53:24.379Z,66.30
2017-08-04T05:55:55.057Z,66.30
2017-08-04T05:58:25.039Z,65.50
2017-08-04T06:00:58.681Z,66.60
2017-08-04T06:03:28.162Z,66.60
2017-08-04T06:06:01.517Z,66.60
2017-08-04T06:08:34.595Z,66.80
2017-08-04T06:11:03.791Z,66.80
2017-08-04T06:13:36.340Z,66.70
2017-08-04T06:16:12.090Z,66.60
2017-08-04T06:18:40.515Z,66.60
2017-08-04T06:21:11.098Z,66.60
2017-08-04T06:23:40.987Z,66.70
2017-08-04T06:26:09.509Z,66.10
2017-08-04T06:28:38.511Z,67.40
2017-08-04T06:31:08.237Z,67.30
2017-08-04T06:33:36.547Z,66.90
2017-08-04T06:36:05.576Z,66.40
2017-08-04T06:38:33.888Z,66.40
2017-08-04T06:41:02.271Z,65.40
2017-08-04T06:43:32.366Z,65.30
2017-08-04T06:46:00.802Z,65.30
2017-08-04T06:48:44.797Z,65.40
2017-08-04T06:51:34.528Z,64.30
2017-08-04T06:54:16.230Z,63.20
2017-08-04T06:56:48.164Z,61.60
2017-08-04T06:59:17.229Z,61.50
2017-08-04T07:01:45.774Z,61.10
2017-08-04T07:04:14.058Z,60.20
2017-08-04T07:06:45.914Z,59.30
2017-08-04T07:09:19.292Z,58.60
2017-08-04T07:11:47.527Z,58.40
2017-08-04T07:14:15.829Z,58.60
2017-08-04T07:16:44.048Z,58.10
2017-08-04T07:19:12.348Z,57.70
2017-08-04T07:21:40.620Z,57.10
2017-08-04T07:24:09.035Z,57.60
2017-08-04T07:26:37.308Z,56.70
2017-08-04T07:29:05.568Z,55.90
2017-08-04T07:31:33.819Z,55.40
2017-08-04T07:34:02.068Z,54.20
2017-08-04T07:36:31.065Z,54.80
2017-08-04T07:38:59.444Z,54.80
2017-08-04T07:41:27.892Z,54.70
2017-08-04T07:43:56.230Z,55.10
2017-08-04T07:46:25.091Z,55.90
2017-08-04T07:48:53.393Z,55.80
2017-08-04T07:51:21.797Z,56.30
2017-08-04T07:53:50.041Z,55.50
2017-08-04T07:56:18.571Z,54.20
2017-08-04T07:58:47.969Z,50.80
2017-08-04T08:01:16.263Z,51.30
2017-08-04T08:03:46.040Z,49.80
2017-08-04T08:06:14.613Z,50.40
2017-08-04T08:08:42.932Z,49.90
2017-08-04T08:11:11.952Z,48.80
2017-08-04T08:13:40.225Z,48.70
2017-08-04T08:16:09.224Z,48.60
2017-08-04T08:18:37.833Z,48.60
2017-08-04T08:21:06.113Z,48.90
2017-08-04T08:23:34.352Z,48.40
2017-08-04T08:26:02.621Z,46.80
2017-08-04T08:28:31.203Z,47.20
2017-08-04T08:30:59.616Z,47.60
2017-08-04T08:33:27.865Z,47.80
2017-08-04T08:35:56.149Z,46.90
2017-08-04T08:38:24.415Z,48.10
2017-08-04T08:40:52.796Z,47.70
2017-08-04T08:43:21.037Z,47.40
2017-08-04T08:45:49.487Z,46.30
2017-08-04T08:48:17.700Z,45.60
2017-08-04T08:50:46.765Z,44.80
2017-08-04T08:53:15.005Z,44.70
2017-08-04T08:55:43.855Z,44.90
2017-08-04T08:58:13.851Z,45.70
2017-08-04T09:00:43.561Z,45.70
2017-08-04T09:03:11.967Z,46.30
2017-08-04T09:05:40.259Z,46.10
2017-08-04T09:08:08.547Z,46.30
2017-08-04T09:10:36.830Z,47.30
2017-08-04T09:13:05.077Z,48.10
2017-08-04T09:15:33.486Z,48.50
2017-08-04T09:18:01.756Z,48.50
2017-08-04T09:20:29.984Z,49.00
2017-08-04T09:22:59.050Z,48.80
2017-08-04T09:25:27.357Z,48.80
2017-08-04T09:27:56.559Z,49.20
2017-08-04T09:30:24.797Z,48.40
2017-08-04T09:32:53.168Z,47.50
2017-08-04T09:35:21.457Z,47.70
2017-08-04T09:37:49.765Z,47.90
2017-08-04T09:40:18.841Z,47.10
2017-08-04T09:42:47.444Z,47.10
2017-08-04T09:45:15.721Z,46.70
2017-08-04T09:47:44.072Z,46.50
2017-08-04T09:50:13.087Z,46.90
2017-08-04T09:52:42.464Z,46.50
2017-08-04T09:55:12.174Z,46.50
2017-08-04T09:57:40.509Z,46.80
2017-08-04T10:00:08.968Z,47.10
2017-08-04T10:02:37.440Z,46.70
2017-08-04T10:05:06.606Z,47.30
2017-08-04T10:07:34.910Z,47.30
2017-08-04T10:10:03.197Z,47.60
2017-08-04T10:12:31.860Z,47.40
2017-08-04T10:15:01.454Z,47.30
2017-08-04T10:17:29.681Z,47.10
2017-08-04T10:19:58.213Z,45.40
2017-08-04T10:22:26.497Z,45.50
2017-08-04T10:24:55.982Z,43.40
2017-08-04T10:27:24.200Z,43.30
2017-08-04T10:29:52.710Z,42.00
2017-08-04T10:32:21.014Z,41.70
2017-08-04T10:34:49.279Z,41.70
2017-08-04T10:37:17.972Z,41.10
2017-08-04T10:39:46.238Z,39.20
2017-08-04T10:42:14.493Z,39.40
2017-08-04T10:44:42.779Z,37.60
2017-08-04T10:47:11.056Z,38.00
2017-08-04T10:49:40.378Z,36.90
2017-08-04T10:52:08.739Z,37.50
2017-08-04T10:54:37.065Z,37.00
2017-08-04T10:57:05.323Z,36.80
2017-08-04T10:59:35.785Z,36.30
2017-08-04T11:02:04.036Z,36.30
2017-08-04T11:04:33.274Z,34.40
2017-08-04T11:07:01.634Z,34.40
2017-08-04T11:09:30.747Z,33.80
2017-08-04T11:11:59.257Z,33.70
2017-08-04T11:14:27.650Z,33.40
2017-08-04T11:16:56.198Z,33.10
2017-08-04T11:19:24.576Z,33.70
2017-08-04T11:21:52.848Z,32.50
2017-08-04T11:24:21.292Z,32.10
2017-08-04T11:26:50.336Z,33.50
2017-08-04T11:29:18.641Z,33.60
2017-08-04T11:31:47.669Z,36.50
2017-08-04T11:34:15.919Z,36.50
2017-08-04T11:36:44.281Z,35.80
2017-08-04T11:39:12.646Z,37.00
2017-08-04T11:41:41.125Z,37.70
2017-08-04T11:44:09.459Z,37.80
2017-08-04T11:46:38.194Z,36.90
2017-08-04T11:49:06.453Z,36.50
2017-08-04T11:51:35.872Z,33.80
2017-08-04T11:54:04.612Z,33.80
2017-08-04T11:56:33.404Z,32.70
2017-08-04T11:59:02.102Z,32.40
2017-08-04T12:01:32.451Z,31.70
2017-08-04T12:04:00.852Z,32.20
2017-08-04T12:06:30.257Z,32.60
2017-08-04T12:08:59.489Z,34.80
2017-08-04T12:11:30.900Z,34.80
2017-08-04T12:13:59.590Z,34.10
2017-08-04T12:16:28.630Z,35.40
2017-08-04T12:18:56.988Z,35.60
2017-08-04T12:21:25.598Z,37.50
2017-08-04T12:23:56.994Z,37.10
2017-08-04T12:26:26.324Z,37.60
2017-08-04T12:28:54.867Z,38.40
2017-08-04T12:31:23.322Z,37.30
2017-08-04T12:33:51.672Z,37.40
2017-08-04T12:36:21.800Z,37.30
2017-08-04T12:38:51.100Z,39.30
2017-08-04T12:41:24.550Z,38.60
2017-08-04T12:43:54.505Z,38.70
2017-08-04T12:46:22.776Z,38.70
2017-08-04T12:48:51.309Z,38.90
2017-08-04T12:51:21.128Z,37.70
2017-08-04T12:53:49.651Z,37.60
2017-08-04T12:56:17.908Z,36.80
2017-08-04T12:58:46.173Z,37.30
2017-08-04T13:01:14.421Z,37.30
2017-08-04T13:03:44.028Z,37.60
2017-08-04T13:06:12.316Z,37.60
2017-08-04T13:08:41.437Z,37.70
2017-08-04T13:11:09.731Z,37.70
2017-08-04T13:13:38.016Z,38.50
2017-08-04T13:16:06.240Z,37.80
2017-08-04T13:18:35.285Z,36.30
2017-08-04T13:21:03.878Z,36.20
2017-08-04T13:23:32.310Z,36.60
2017-08-04T13:26:01.301Z,37.20
2017-08-04T13:28:29.807Z,36.50
2017-08-04T13:30:58.194Z,37.10
2017-08-04T13:33:26.448Z,37.30
2017-08-04T13:35:54.730Z,37.00
2017-08-04T13:38:28.741Z,37.50
2017-08-04T13:40:57.015Z,37.50
2017-08-04T13:43:25.361Z,37.60
2017-08-04T13:45:54.451Z,38.00
2017-08-04T13:48:23.864Z,38.50
2017-08-04T13:50:52.667Z,38.40
2017-08-04T13:53:20.941Z,39.00
2017-08-04T13:55:49.223Z,39.60
2017-08-04T13:58:17.608Z,38.40
2017-08-04T14:00:45.953Z,37.70
2017-08-04T14:03:14.302Z,38.00
2017-08-04T14:05:42.568Z,38.30
2017-08-04T14:08:10.849Z,38.10
2017-08-04T14:10:39.165Z,39.00
2017-08-04T14:13:07.497Z,38.50
2017-08-04T14:15:35.783Z,38.90
2017-08-04T14:18:04.261Z,39.50
2017-08-04T14:20:33.500Z,39.50
2017-08-04T14:23:02.153Z,39.50
2017-08-04T14:25:32.792Z,39.10
2017-08-04T14:28:01.688Z,39.30
2017-08-04T14:30:31.885Z,39.30
2017-08-04T14:33:01.371Z,38.90
2017-08-04T14:35:29.768Z,40.10
2017-08-04T14:38:00.044Z,39.70
2017-08-04T14:40:28.429Z,39.70
2017-08-04T14:42:57.345Z,39.60
2017-08-04T14:45:26.342Z,39.70
2017-08-04T14:47:54.793Z,39.70
2017-08-04T14:50:23.264Z,40.10
2017-08-04T14:52:51.832Z,40.20
2017-08-04T14:55:21.426Z,39.90
2017-08-04T14:57:49.799Z,39.90
2017-08-04T15:00:18.123Z,40.50
2017-08-04T15:02:46.481Z,40.40
2017-08-04T15:05:14.882Z,40.30
2017-08-04T15:07:43.282Z,40.40
2017-08-04T15:10:11.513Z,40.60
2017-08-04T15:12:39.995Z,40.60
2017-08-04T15:15:08.729Z,40.40
2017-08-04T15:17:37.374Z,40.00
2017-08-04T15:20:06.927Z,40.90
2017-08-04T15:22:35.305Z,40.00
2017-08-04T15:25:03.833Z,40.00
2017-08-04T15:27:32.109Z,40.10
2017-08-04T15:30:00.562Z,40.40
2017-08-04T15:32:28.785Z,40.50
2017-08-04T15:34:57.139Z,40.80
2017-08-04T15:37:25.852Z,41.00
2017-08-04T15:39:54.119Z,40.70
2017-08-04T15:42:22.456Z,41.20
2017-08-04T15:44:50.725Z,40.60
2017-08-04T15:47:19.799Z,40.30
2017-08-04T15:49:48.120Z,40.30
2017-08-04T15:52:16.500Z,40.60
2017-08-04T15:54:44.857Z,40.50
2017-08-04T15:57:13.856Z,40.30
2017-08-04T15:59:42.263Z,40.30
2017-08-04T16:02:10.555Z,41.00
2017-08-04T16:04:38.969Z,40.80
2017-08-04T16:07:07.594Z,40.50
2017-08-04T16:09:35.912Z,40.60
2017-08-04T16:12:04.519Z,40.70
2017-08-04T16:14:34.147Z,40.40
2017-08-04T16:17:02.742Z,40.40
2017-08-04T16:19:33.137Z,40.30
2017-08-04T16:22:01.403Z,40.30
2017-08-04T16:24:30.598Z,40.20
2017-08-04T16:26:59.961Z,40.00
2017-08-04T16:29:30.185Z,40.00
2017-08-04T16:31:59.194Z,40.00
2017-08-04T16:34:29.391Z,40.40
2017-08-04T16:36:58.156Z,40.20
2017-08-04T16:39:26.664Z,40.10
2017-08-04T16:41:55.104Z,40.80
2017-08-04T16:44:23.737Z,40.90
2017-08-04T16:46:52.443Z,40.30
2017-08-04T16:49:21.523Z,40.90
2017-08-04T16:51:51.102Z,40.90
2017-08-04T16:54:19.474Z,41.00
2017-08-04T16:56:47.704Z,40.50
2017-08-04T16:59:16.879Z,41.40
2017-08-04T17:01:45.176Z,41.40
2017-08-04T17:04:14.377Z,41.00
2017-08-04T17:06:43.414Z,41.60
2017-08-04T17:09:11.842Z,41.60
2017-08-04T17:11:41.287Z,41.30
2017-08-04T17:14:09.668Z,41.10
2017-08-04T17:16:37.896Z,41.10
2017-08-04T17:19:07.191Z,41.30
2017-08-04T17:21:36.251Z,41.40
2017-08-04T17:24:04.666Z,41.40
2017-08-04T17:26:33.713Z,41.20
2017-08-04T17:29:02.123Z,41.20
2017-08-04T17:31:30.398Z,41.50
2017-08-04T17:33:59.972Z,41.60
2017-08-04T17:36:28.403Z,41.80
2017-08-04T17:38:56.742Z,41.90
2017-08-04T17:41:24.969Z,41.90
2017-08-04T17:43:53.316Z,42.00
2017-08-04T17:46:21.755Z,42.10
2017-08-04T17:48:50.065Z,42.30
2017-08-04T17:51:18.287Z,42.80
2017-08-04T17:53:46.533Z,42.70
2017-08-04T17:56:14.780Z,42.50
2017-08-04T17:58:43.133Z,43.10
2017-08-04T18:01:11.459Z,42.50
2017-08-04T18:03:39.744Z,42.60
2017-08-04T18:06:08.129Z,42.70
2017-08-04T18:08:36.493Z,42.60
2017-08-04T18:11:05.546Z,42.70
2017-08-04T18:13:33.900Z,42.70
2017-08-04T18:16:02.282Z,42.80
2017-08-04T18:18:30.577Z,42.50
2017-08-04T18:20:58.856Z,42.90
2017-08-04T18:23:27.095Z,42.60
2017-08-04T18:25:55.377Z,43.00
2017-08-04T18:28:23.737Z,43.10
2017-08-04T18:30:52.079Z,43.30
2017-08-04T18:33:20.305Z,43.30
2017-08-04T18:35:48.563Z,43.50
2017-08-04T18:38:17.590Z,43.70
2017-08-04T18:40:45.830Z,43.70
2017-08-04T18:43:14.139Z,43.60
2017-08-04T18:45:42.709Z,43.70
2017-08-04T18:48:11.117Z,43.80
2017-08-04T18:50:39.368Z,43.90
2017-08-04T18:53:07.667Z,43.90
2017-08-04T18:55:35.922Z,43.90
2017-08-04T18:58:04.394Z,43.80
2017-08-04T19:00:32.897Z,43.90
2017-08-04T19:03:01.221Z,43.90
2017-08-04T19:05:30.193Z,44.40
2017-08-04T19:07:58.576Z,44.30
2017-08-04T19:10:27.161Z,44.20
2017-08-04T19:12:56.183Z,44.30
2017-08-04T19:15:24.563Z,44.60
2017-08-04T19:17:53.672Z,45.00
2017-08-04T19:20:21.911Z,45.00
2017-08-04T19:22:51.206Z,45.30
2017-08-04T19:25:21.001Z,45.80
2017-08-04T19:27:49.258Z,45.70
2017-08-04T19:30:17.877Z,45.80
2017-08-04T19:32:47.501Z,46.00
2017-08-04T19:35:16.909Z,45.90
2017-08-04T19:37:45.258Z,46.00
2017-08-04T19:40:15.895Z,46.30
2017-08-04T19:42:44.272Z,46.10
2017-08-04T19:45:12.754Z,46.10
2017-08-04T19:47:41.879Z,46.60
2017-08-04T19:50:13.134Z,46.40
2017-08-04T19:52:41.482Z,46.40
2017-08-04T19:55:09.951Z,46.60
2017-08-04T19:57:38.223Z,46.70
2017-08-04T20:00:06.660Z,46.50
2017-08-04T20:02:34.969Z,46.60
2017-08-04T20:05:03.467Z,46.90
2017-08-04T20:07:31.854Z,46.80
2017-08-04T20:10:00.145Z,46.80
2017-08-04T20:12:28.709Z,46.60
2017-08-04T20:14:57.277Z,46.50
2017-08-04T20:17:25.817Z,46.60
2017-08-04T20:19:54.171Z,46.70
2017-08-04T20:22:22.444Z,46.70
2017-08-04T20:24:50.707Z,46.90
2017-08-04T20:27:19.250Z,47.00
2017-08-04T20:29:48.453Z,47.10
2017-08-04T20:32:16.713Z,47.10
2017-08-04T20:34:45.167Z,47.10
2017-08-04T20:37:13.490Z,47.20
2017-08-04T20:39:43.101Z,47.50
2017-08-04T20:42:11.529Z,47.50
2017-08-04T20:44:40.645Z,48.00
2017-08-04T20:47:08.873Z,48.00
2017-08-04T20:49:37.127Z,48.10
2017-08-04T20:52:05.680Z,48.20
2017-08-04T20:54:34.176Z,48.20
2017-08-04T20:57:02.699Z,48.50
2017-08-04T20:59:31.690Z,49.30
2017-08-04T21:01:59.994Z,49.20
2017-08-04T21:04:28.220Z,49.30
2017-08-04T21:06:57.257Z,49.90
2017-08-04T21:09:25.563Z,49.20
2017-08-04T21:11:53.906Z,49.60
2017-08-04T21:14:22.246Z,49.60
2017-08-04T21:16:50.515Z,50.00
2017-08-04T21:19:18.746Z,50.20
2017-08-04T21:21:47.252Z,50.20
2017-08-04T21:24:16.385Z,49.80
2017-08-04T21:26:44.817Z,49.80
2017-08-04T21:29:13.378Z,49.70
2017-08-04T21:31:41.729Z,49.80
2017-08-04T21:34:10.135Z,49.90
2017-08-04T21:36:38.497Z,50.10
2017-08-04T21:39:06.764Z,50.20
2017-08-04T21:41:35.031Z,50.50
2017-08-04T21:44:04.189Z,51.00
2017-08-04T21:46:32.418Z,51.00
2017-08-04T21:49:00.763Z,51.20
2017-08-04T21:51:29.127Z,51.30
2017-08-04T21:53:57.353Z,51.10
2017-08-04T21:56:25.663Z,51.10
2017-08-04T21:58:53.925Z,51.40
2017-08-04T22:01:22.224Z,51.50
2017-08-04T22:03:50.462Z,51.30
2017-08-04T22:06:18.783Z,51.20
2017-08-04T22:08:46.989Z,51.40
2017-08-04T22:11:15.322Z,51.40
2017-08-04T22:13:43.629Z,51.60
2017-08-04T22:16:12.655Z,51.40
2017-08-04T22:18:40.937Z,51.60
2017-08-04T22:21:09.221Z,51.80
2017-08-04T22:23:37.478Z,52.20
2017-08-04T22:26:05.714Z,52.00
2017-08-04T22:28:34.117Z,52.10
2017-08-04T22:31:02.383Z,52.40
2017-08-04T22:33:31.226Z,53.00
2017-08-04T22:35:59.609Z,53.00
2017-08-04T22:38:27.983Z,53.10
2017-08-04T22:40:56.320Z,53.10
2017-08-04T22:43:24.613Z,53.10
2017-08-04T22:45:53.822Z,53.30
2017-08-04T22:48:22.053Z,53.30
2017-08-04T22:50:50.523Z,53.60
2017-08-04T22:53:19.699Z,53.90
2017-08-04T22:55:48.778Z,54.30
2017-08-04T22:58:17.085Z,54.00
2017-08-04T23:00:46.105Z,54.80
2017-08-04T23:03:14.351Z,54.10
2017-08-04T23:05:42.677Z,54.20
2017-08-04T23:08:10.923Z,54.30
2017-08-04T23:10:39.168Z,54.20
2017-08-04T23:13:08.230Z,54.60
2017-08-04T23:15:36.512Z,54.60
2017-08-04T23:18:04.786Z,54.90
2017-08-04T23:20:33.088Z,55.00
2017-08-04T23:23:02.155Z,55.00
2017-08-04T23:25:30.506Z,55.00
2017-08-04T23:27:58.823Z,55.00
2017-08-04T23:30:27.132Z,54.90
2017-08-04T23:32:56.300Z,55.10
2017-08-04T23:35:25.424Z,55.60
2017-08-04T23:37:54.537Z,55.20
2017-08-04T23:40:23.373Z,55.20
2017-08-04T23:42:51.773Z,55.30
2017-08-04T23:45:20.002Z,55.40
2017-08-04T23:47:48.245Z,55.40
2017-08-04T23:50:16.688Z,55.50
2017-08-04T23:52:44.949Z,55.60
2017-08-04T23:55:13.276Z,55.50
2017-08-04T23:57:41.540Z,55.50
